Enter the Airport ICAO Code

Search by Airport or City

Current Weather

LPPR | Francisco de Sá Carneiro Airport

Porto, Portugal

Last Update 31 Minutes Ago

Clear Sky

Temperature of 26 ºC

Light to Moderate Winds from NorthEast

Temperature

26 ºC

Dew Point Temperature

08 ºC

Relative Humidity

32.12 %

Wind Direction

NorthEast (030º, Ranging from 340º to 070º)

Wind Velocity

15 km/h (08 kt)

Gusts

None

Visibility

No Significant Reductions

Sea Level Pressure

1021 hPa (Hectopascals)

Layers of Clouds

None

METAR LPPR 211400Z 03008KT 340V070 CAVOK 26/08 Q1021

Weather Forecast

LPPR | Francisco de Sá Carneiro Airport

Porto, Portugal

Forecast valid for the next 21 Hours

From now on it is expected:

Moderate Winds from North

In 4 to 6 hours it is expected the begining of:

Light to Moderate Winds from NorthEast

In 8 to 11 hours it is expected the begining of:

Moderate Winds from East

Maximum Temperature

No Data

Minimum Temperature

No Data

TAF LPPR 211100Z 2112/2212 07008KT CAVOK BECMG 2112/2114 36010KT BECMG 2119/2121 03007KT BECMG 2123/2202 08010KT